Time;durP1;ratioP1;P1;durP2;ratioP2;P2;SDS_P1;SDS_P2;PMS_P1;PMS_P2;Temp;Humidity;BMP_temperature;BMP_pressure;BME280_temperature;BME280_humidity;BME280_pressure;Samples;Min_cycle;Max_cycle;Signal;HPM_P1;HPM_P2
2023/01/02 00:00:55;;;;;;;7.05;4.90;;;;;;;9.29;67.43;100854.86;1698497;83;21477;-75
2023/01/02 00:03:23;;;;;;;8.90;5.05;;;;;;;9.28;67.60;100866.35;1677665;83;21763;-75
2023/01/02 00:05:50;;;;;;;8.20;6.03;;;;;;;9.27;67.65;100864.19;1727190;82;20987;-76
2023/01/02 00:08:18;;;;;;;7.03;6.08;;;;;;;9.26;67.63;100865.11;1727123;82;21002;-74
2023/01/02 00:10:45;;;;;;;6.03;4.58;;;;;;;9.26;67.67;100870.86;1727335;83;21026;-75
2023/01/02 00:13:12;;;;;;;5.65;4.30;;;;;;;9.23;67.74;100871.07;1714737;83;21018;-76
2023/01/02 00:15:39;;;;;;;7.62;4.70;;;;;;;9.21;67.78;100875.60;1698286;83;21892;-76
2023/01/02 00:18:06;;;;;;;7.95;5.00;;;;;;;9.20;67.80;100873.91;1698123;83;20958;-73
2023/01/02 00:20:33;;;;;;;5.97;4.42;;;;;;;9.18;67.87;100872.23;1706827;83;21062;-75
2023/01/02 00:22:59;;;;;;;5.80;4.58;;;;;;;9.18;67.87;100882.77;1727504;83;21593;-75
2023/01/02 00:25:26;;;;;;;7.03;5.05;;;;;;;9.17;67.88;100878.92;1727314;82;21078;-75
2023/01/02 00:27:53;;;;;;;7.40;4.80;;;;;;;9.14;67.85;100881.27;1733003;82;21771;-75
2023/01/02 00:30:20;;;;;;;8.00;4.90;;;;;;;9.13;67.84;100889.27;1696236;84;21053;-75
2023/01/02 00:32:47;;;;;;;6.90;4.67;;;;;;;9.10;67.90;100885.05;1706323;84;20943;-75
2023/01/02 00:35:13;;;;;;;9.20;4.72;;;;;;;9.07;67.92;100877.36;1682081;84;20981;-76
2023/01/02 00:37:40;;;;;;;6.97;4.83;;;;;;;9.04;67.98;100880.65;1716517;82;21473;-74
2023/01/02 00:40:12;;;;;;;7.30;5.28;;;;;;;9.03;68.02;100882.44;1735689;82;21414;-74
2023/01/02 00:42:38;;;;;;;7.10;5.25;;;;;;;9.02;68.06;100871.53;1735676;82;20990;-75
2023/01/02 00:45:06;;;;;;;6.83;4.60;;;;;;;9.02;68.05;100883.86;1735796;82;20946;-76
2023/01/02 00:47:33;;;;;;;7.15;5.35;;;;;;;8.99;68.08;100875.69;1718992;82;21013;-76
2023/01/02 00:49:59;;;;;;;8.98;5.95;;;;;;;8.98;68.20;100888.97;1706379;84;21033;-75
2023/01/02 00:52:25;;;;;;;7.80;5.30;;;;;;;8.97;68.31;100881.51;1706474;83;21957;-74
2023/01/02 00:54:52;;;;;;;8.08;5.10;;;;;;;9.02;68.82;100876.80;1720661;82;21062;-74
2023/01/02 00:57:18;;;;;;;9.18;5.47;;;;;;;9.20;69.16;100881.82;1737354;82;21203;-74
2023/01/02 00:59:45;;;;;;;7.60;5.08;;;;;;;9.35;69.15;100878.16;1738988;82;20942;-75
2023/01/02 01:02:11;;;;;;;10.80;5.25;;;;;;;9.53;69.09;100882.69;1737596;82;20994;-75
2023/01/02 01:04:38;;;;;;;7.65;4.72;;;;;;;9.68;68.77;100871.12;1735581;82;21905;-75
2023/01/02 01:07:06;;;;;;;6.12;4.03;;;;;;;9.84;68.54;100862.98;1735797;82;20955;-75
2023/01/02 01:09:33;;;;;;;7.78;4.20;;;;;;;9.95;68.20;100872.36;1735852;82;21006;-75
2023/01/02 01:12:01;;;;;;;5.30;4.12;;;;;;;10.02;67.92;100878.40;1696236;82;21002;-75
2023/01/02 01:14:29;;;;;;;5.33;3.67;;;;;;;10.10;67.67;100871.75;1707276;81;21555;-75
2023/01/02 01:16:56;;;;;;;7.47;3.80;;;;;;;10.17;67.42;100869.91;1706803;84;21868;-76
2023/01/02 01:19:22;;;;;;;4.20;3.60;;;;;;;10.21;67.21;100871.37;1676457;85;21043;-76
2023/01/02 01:21:49;;;;;;;7.05;3.65;;;;;;;10.24;66.98;100861.13;1707454;82;21071;-75
2023/01/02 01:24:15;;;;;;;6.05;3.90;;;;;;;10.29;66.82;100855.88;1706237;84;21201;-75
2023/01/02 01:26:42;;;;;;;6.17;3.65;;;;;;;10.32;66.68;100858.28;1705749;84;20983;-75
2023/01/02 01:29:08;;;;;;;7.80;4.30;;;;;;;10.34;66.53;100846.80;1699370;83;21962;-75
2023/01/02 01:31:35;;;;;;;5.17;3.65;;;;;;;10.37;66.38;100848.73;1698209;84;20978;-75
2023/01/02 01:34:01;;;;;;;5.28;3.80;;;;;;;10.40;66.26;100845.86;1698340;84;21125;-76
2023/01/02 01:36:29;;;;;;;5.58;3.70;;;;;;;10.42;66.11;100839.15;1698309;84;21041;-75
2023/01/02 01:38:55;;;;;;;6.78;4.00;;;;;;;10.42;65.99;100846.63;1706494;83;20995;-76
2023/01/02 01:41:24;;;;;;;5.75;3.90;;;;;;;10.45;65.96;100838.95;1698641;84;21852;-76
2023/01/02 01:43:56;;;;;;;5.67;3.50;;;;;;;10.45;65.88;100842.91;1697974;84;21541;-75
2023/01/02 01:46:34;;;;;;;5.37;3.53;;;;;;;10.45;65.85;100838.95;1717267;83;21034;-76
2023/01/02 01:49:06;;;;;;;5.60;3.45;;;;;;;10.42;65.77;100841.34;1727110;83;21026;-75
2023/01/02 01:51:35;;;;;;;5.80;3.87;;;;;;;10.42;65.80;100839.15;1727210;83;21414;-74
2023/01/02 01:54:09;;;;;;;6.25;3.70;;;;;;;10.41;65.75;100852.83;1727313;83;21830;-75
2023/01/02 01:56:39;;;;;;;6.87;3.92;;;;;;;10.46;65.74;100848.56;1726690;83;21728;-75
2023/01/02 01:59:08;;;;;;;5.40;3.80;;;;;;;10.49;65.64;100840.41;1727393;83;20959;-74
2023/01/02 02:01:34;;;;;;;4.80;3.70;;;;;;;10.51;65.55;100839.81;1727280;83;21158;-75
2023/01/02 02:04:01;;;;;;;5.40;3.60;;;;;;;10.52;65.43;100834.92;1726481;82;21436;-75
2023/01/02 02:06:27;;;;;;;5.42;3.77;;;;;;;10.53;65.41;100839.25;1727388;83;22466;-75
2023/01/02 02:09:23;;;;;;;6.83;3.87;;;;;;;10.51;65.36;100835.38;1727239;83;21430;-75
2023/01/02 02:11:49;;;;;;;5.72;4.03;;;;;;;10.50;65.35;100830.20;1685948;84;21065;-75
2023/01/02 02:14:17;;;;;;;6.05;3.98;;;;;;;10.52;65.30;100825.69;1697986;84;21003;-76
2023/01/02 02:16:54;;;;;;;4.20;3.72;;;;;;;10.51;65.26;100831.89;1698248;84;21402;-76
2023/01/02 02:19:38;;;;;;;7.60;3.50;;;;;;;10.47;65.24;100829.96;1697446;83;21552;-76
2023/01/02 02:22:14;;;;;;;;;;;;;;;10.44;65.24;100834.15;1651008;87;21015;-76
2023/01/02 02:25:08;;;;;;;4.53;3.50;;;;;;;10.42;65.34;100839.15;1667771;86;20138;-75
2023/01/02 02:28:28;;;;;;;7.08;3.92;;;;;;;10.40;65.45;100837.94;1667979;86;21048;-75
2023/01/02 02:31:21;;;;;;;6.15;3.92;;;;;;;10.39;65.50;100839.38;1673325;85;20984;-75
2023/01/02 02:33:58;;;;;;;5.05;3.27;;;;;;;10.38;65.53;100842.97;1673823;85;21825;-75
2023/01/02 02:36:48;;;;;;;6.37;4.00;;;;;;;10.36;65.58;100843.09;1646002;85;21023;-75
2023/01/02 02:39:32;;;;;;;5.67;3.90;;;;;;;10.38;65.62;100848.25;1669836;84;20984;-74
2023/01/02 02:42:26;;;;;;;5.78;3.77;;;;;;;10.37;65.61;100850.53;1757175;81;21043;-75
2023/01/02 02:45:07;;;;;;;5.75;3.60;;;;;;;10.34;65.68;100845.48;1759244;81;20995;-75
2023/01/02 02:47:39;;;;;;;7.70;3.52;;;;;;;10.33;65.72;100849.92;1730821;83;22862;-75
2023/01/02 02:50:12;;;;;;;4.92;3.70;;;;;;;10.32;65.70;100850.84;1731041;82;20844;-74
2023/01/02 02:53:00;;;;;;;7.10;3.75;;;;;;;10.30;65.75;100860.67;1730998;82;21565;-75
2023/01/02 02:55:45;;;;;;;4.95;3.80;;;;;;;10.28;65.80;100860.78;1730201;83;20981;-75
2023/01/02 02:58:12;;;;;;;7.10;3.37;;;;;;;10.24;65.87;100859.33;1730887;83;21021;-75
2023/01/02 03:00:40;;;;;;;3.95;3.37;;;;;;;10.23;65.93;100857.64;1731012;82;21041;-75
2023/01/02 03:03:17;;;;;;;7.80;3.67;;;;;;;10.22;66.05;100861.69;1742600;81;20954;-75
2023/01/02 03:06:08;;;;;;;5.42;4.05;;;;;;;10.21;66.03;100870.52;1690851;84;21036;-75
2023/01/02 03:08:43;;;;;;;6.75;3.77;;;;;;;10.19;66.04;100865.84;1702106;84;20984;-75
2023/01/02 03:11:09;;;;;;;7.03;3.62;;;;;;;10.17;66.13;100876.98;1696153;84;21100;-75
2023/01/02 03:13:54;;;;;;;6.45;3.90;;;;;;;10.15;66.18;100884.17;1670691;86;22015;-74
2023/01/02 03:16:32;;;;;;;6.87;3.95;;;;;;;10.13;66.22;100890.84;1670783;86;20966;-75
2023/01/02 03:19:12;;;;;;;5.85;4.00;;;;;;;10.12;66.32;100893.12;1670191;86;21325;-75
2023/01/02 03:21:46;;;;;;;5.65;4.20;;;;;;;10.11;66.36;100898.52;1701905;84;21042;-75
2023/01/02 03:24:15;;;;;;;6.62;3.87;;;;;;;10.10;66.45;100909.55;1701881;84;21068;-74
2023/01/02 03:26:45;;;;;;;5.53;4.03;;;;;;;10.09;66.50;100910.98;1701998;84;21820;-75
2023/01/02 03:29:30;;;;;;;5.90;3.72;;;;;;;10.09;66.54;100909.19;1701853;84;21012;-75
2023/01/02 03:31:57;;;;;;;6.87;3.80;;;;;;;10.09;66.57;100910.98;1701232;84;20968;-75
2023/01/02 03:34:26;;;;;;;7.33;4.00;;;;;;;10.09;66.54;100907.86;1701874;84;21031;-76
2023/01/02 03:36:56;;;;;;;5.75;4.22;;;;;;;10.08;66.59;100916.73;1700928;83;21032;-75
2023/01/02 03:39:29;;;;;;;5.55;3.90;;;;;;;10.08;66.61;100914.57;1702020;84;21880;-76
2023/01/02 03:42:07;;;;;;;9.40;4.10;;;;;;;10.08;66.58;100918.53;1656863;85;20956;-75
2023/01/02 03:44:49;;;;;;;4.65;3.60;;;;;;;10.04;66.57;100928.47;1700933;83;20975;-75
2023/01/02 03:47:33;;;;;;;6.67;3.98;;;;;;;10.01;66.67;100939.20;1727499;83;21025;-75
2023/01/02 03:50:04;;;;;;;7.60;3.85;;;;;;;9.99;66.79;100942.43;1697761;83;21513;-75
2023/01/02 03:52:30;;;;;;;5.90;4.25;;;;;;;9.97;66.78;100943.86;1727676;83;21801;-76
2023/01/02 03:54:57;;;;;;;7.30;4.00;;;;;;;9.97;66.81;100953.58;1698643;83;20931;-76
2023/01/02 03:57:35;;;;;;;8.58;5.47;;;;;;;9.95;66.83;100957.64;1727276;83;21044;-75
2023/01/02 04:00:11;;;;;;;8.35;5.80;;;;;;;9.93;66.87;100949.44;1727330;83;21416;-75
2023/01/02 04:02:50;;;;;;;11.83;6.58;;;;;;;9.91;66.87;100956.61;1703954;83;21036;-75
2023/01/02 04:05:45;;;;;;;7.92;4.75;;;;;;;9.88;66.87;100961.63;1698295;84;22495;-75
2023/01/02 04:08:28;;;;;;;7.00;4.40;;;;;;;9.83;66.87;100956.28;1698606;84;21040;-75
2023/01/02 04:10:57;;;;;;;5.35;4.15;;;;;;;9.78;66.97;100966.31;1699310;83;21007;-75
2023/01/02 04:13:35;;;;;;;6.05;3.72;;;;;;;9.72;67.10;100967.08;1697075;83;21471;-76
2023/01/02 04:16:03;;;;;;;5.30;4.15;;;;;;;9.69;67.15;100973.88;1718923;83;21004;-76
2023/01/02 04:18:38;;;;;;;8.55;4.30;;;;;;;9.64;67.25;100975.96;1707441;83;21724;-76
2023/01/02 04:21:08;;;;;;;5.97;4.37;;;;;;;9.60;67.31;100976.28;1673775;85;21016;-76
2023/01/02 04:23:48;;;;;;;5.22;4.47;;;;;;;9.56;67.38;100976.97;1674066;85;21004;-75
2023/01/02 04:26:24;;;;;;;5.80;4.20;;;;;;;9.53;67.50;100977.62;1672984;85;20987;-74
2023/01/02 04:28:51;;;;;;;5.95;4.40;;;;;;;9.50;67.63;100976.04;1674601;84;21015;-75
2023/01/02 04:31:27;;;;;;;8.23;4.30;;;;;;;9.48;67.76;100977.94;1674095;85;22558;-75
2023/01/02 04:33:56;;;;;;;8.30;4.75;;;;;;;9.45;67.83;100969.73;1673789;85;21398;-76
2023/01/02 04:36:23;;;;;;;6.70;4.47;;;;;;;9.42;67.92;100976.53;1691903;84;20980;-75
2023/01/02 04:38:49;;;;;;;8.95;4.40;;;;;;;9.39;68.07;100983.33;1702361;84;21123;-75
2023/01/02 04:41:26;;;;;;;6.47;4.20;;;;;;;9.37;68.21;100972.05;1703035;84;20965;-75
2023/01/02 04:43:54;;;;;;;6.12;4.22;;;;;;;9.36;68.30;100978.70;1705020;83;21957;-75
2023/01/02 04:46:21;;;;;;;6.08;4.45;;;;;;;9.34;68.39;100988.04;1701193;84;21008;-74
2023/01/02 04:48:48;;;;;;;8.75;4.75;;;;;;;9.30;68.51;100982.60;1702106;84;21443;-75
2023/01/02 04:51:15;;;;;;;8.20;4.67;;;;;;;9.28;68.59;100980.55;1705195;84;20921;-74
2023/01/02 04:53:41;;;;;;;6.60;4.67;;;;;;;9.27;68.61;100980.17;1704337;81;20980;-74
2023/01/02 04:56:08;;;;;;;6.75;4.50;;;;;;;9.26;68.62;100984.20;1702790;84;21888;-75
2023/01/02 04:58:36;;;;;;;6.95;4.30;;;;;;;9.25;68.69;100994.38;1673430;84;21419;-75
2023/01/02 05:01:08;;;;;;;7.05;5.00;;;;;;;9.22;68.74;100987.52;1702139;84;21459;-76
2023/01/02 05:03:40;;;;;;;7.40;5.58;;;;;;;9.19;68.80;100990.36;1701784;84;21012;-74
2023/01/02 05:06:07;;;;;;;8.93;6.42;;;;;;;9.15;68.89;100993.64;1701971;84;21028;-74
2023/01/02 05:08:35;;;;;;;10.32;5.67;;;;;;;9.14;68.95;100997.70;1701800;84;22216;-75
2023/01/02 05:11:16;;;;;;;6.50;5.37;;;;;;;9.11;69.01;101009.76;1678993;84;21051;-75
2023/01/02 05:13:43;;;;;;;7.15;5.12;;;;;;;9.10;69.05;101006.75;1702362;84;21063;-74
2023/01/02 05:16:10;;;;;;;5.05;4.55;;;;;;;9.07;69.12;101006.48;1701822;84;21051;-75
2023/01/02 05:18:37;;;;;;;8.55;5.00;;;;;;;9.03;69.26;101002.33;1700948;84;21052;-75
2023/01/02 05:23:47;;;;;;;7.58;4.87;;;;;;;9.02;69.31;101023.04;1702054;84;21898;-74
2023/01/02 05:23:48;;;;;;;5.65;4.53;;;;;;;9.00;69.34;101027.56;1698031;84;20968;-75
2023/01/02 05:26:16;;;;;;;5.53;4.03;;;;;;;8.99;69.37;101031.14;1696619;84;21031;-75
2023/01/02 05:28:43;;;;;;;5.95;4.70;;;;;;;8.97;69.47;101031.69;1670752;85;21487;-75
2023/01/02 05:31:10;;;;;;;8.13;4.85;;;;;;;8.92;69.59;101043.00;1665183;86;21473;-74
2023/01/02 05:33:37;;;;;;;6.70;4.83;;;;;;;8.91;69.65;101041.31;1665371;86;21848;-75
2023/01/02 05:36:06;;;;;;;7.25;4.90;;;;;;;8.88;69.77;101044.14;1666179;84;21490;-75
2023/01/02 05:38:34;;;;;;;7.37;4.60;;;;;;;8.86;69.84;101043.36;1665111;85;21004;-75
2023/01/02 05:41:03;;;;;;;8.03;5.12;;;;;;;8.84;69.94;101043.94;1677250;84;21050;-75
2023/01/02 05:43:31;;;;;;;5.40;4.33;;;;;;;8.82;70.00;101040.08;1686177;84;21094;-75
2023/01/02 05:45:58;;;;;;;7.70;5.35;;;;;;;8.82;70.07;101044.03;1665257;86;21895;-75
2023/01/02 05:48:25;;;;;;;7.78;5.28;;;;;;;8.80;70.10;101047.23;1664872;86;21008;-74
2023/01/02 05:50:52;;;;;;;9.93;6.22;;;;;;;8.79;70.18;101048.19;1664712;86;21011;-75
2023/01/02 05:53:18;;;;;;;8.98;6.50;;;;;;;8.77;70.29;101053.14;1678058;84;20988;-75
2023/01/02 05:55:44;;;;;;;8.68;5.83;;;;;;;8.77;70.33;101063.68;1693622;84;20984;-75
2023/01/02 05:58:12;;;;;;;9.73;5.62;;;;;;;8.74;70.34;101065.19;1693261;84;21920;-74
2023/01/02 06:00:38;;;;;;;10.30;6.35;;;;;;;8.71;70.46;101071.50;1683364;84;21071;-74
2023/01/02 06:03:05;;;;;;;9.03;5.60;;;;;;;8.70;70.46;101071.60;1665354;86;20976;-75
2023/01/02 06:05:33;;;;;;;9.00;6.22;;;;;;;8.65;70.40;101073.18;1665534;86;21032;-75
2023/01/02 06:08:01;;;;;;;7.90;5.65;;;;;;;8.59;70.41;101077.05;1620539;86;21043;-75
2023/01/02 06:10:28;;;;;;;6.30;5.40;;;;;;;8.54;70.46;101083.52;1666136;84;21840;-75
2023/01/02 06:12:54;;;;;;;11.43;6.10;;;;;;;8.50;70.55;101084.17;1665001;84;21013;-75
2023/01/02 06:15:22;;;;;;;7.58;5.75;;;;;;;8.47;70.73;101084.33;1693287;84;21032;-75
2023/01/02 06:17:49;;;;;;;8.68;5.67;;;;;;;8.45;70.80;101092.80;1692320;84;20976;-75
2023/01/02 06:20:16;;;;;;;9.28;6.03;;;;;;;8.41;70.95;101086.50;1693311;84;20956;-75
2023/01/02 06:22:42;;;;;;;9.03;5.42;;;;;;;8.38;70.96;101088.83;1693404;84;21822;-75
2023/01/02 06:25:11;;;;;;;9.63;5.90;;;;;;;8.36;70.98;101091.17;1693324;84;21015;-75
2023/01/02 06:27:37;;;;;;;7.58;5.17;;;;;;;8.33;71.05;101093.02;1692258;84;20976;-74
2023/01/02 06:30:06;;;;;;;9.83;5.17;;;;;;;8.32;71.12;101094.44;1693293;84;21000;-76
2023/01/02 06:32:34;;;;;;;8.28;5.47;;;;;;;8.31;71.24;101095.38;1693260;84;20996;-76
2023/01/02 06:35:00;;;;;;;7.60;5.70;;;;;;;8.32;71.37;101102.33;1679511;84;21795;-75
2023/01/02 06:37:27;;;;;;;9.18;5.75;;;;;;;8.31;71.51;101104.59;1689486;85;20961;-76
2023/01/02 06:39:54;;;;;;;7.05;5.70;;;;;;;8.34;71.60;101116.24;1689596;85;20975;-75
2023/01/02 06:42:21;;;;;;;8.10;5.78;;;;;;;8.37;71.77;101112.61;1675444;84;21043;-76
2023/01/02 06:44:47;;;;;;;8.20;5.92;;;;;;;8.40;71.81;101112.45;1690620;83;21008;-75
2023/01/02 06:47:15;;;;;;;8.20;6.28;;;;;;;8.42;71.90;101110.57;1689674;85;21398;-76
2023/01/02 06:49:42;;;;;;;10.30;7.83;;;;;;;8.45;71.97;101116.49;1689853;85;21059;-76
2023/01/02 06:52:08;;;;;;;10.98;7.28;;;;;;;8.49;72.03;101115.39;1705215;83;20959;-73
2023/01/02 06:54:35;;;;;;;10.25;7.28;;;;;;;8.54;72.04;101119.05;1718108;83;20968;-76
2023/01/02 06:57:01;;;;;;;9.93;6.45;;;;;;;8.57;72.06;101125.45;1718302;83;21050;-76
2023/01/02 06:59:28;;;;;;;12.37;7.10;;;;;;;8.61;72.13;101126.98;1718251;83;21941;-77
2023/01/02 07:01:55;;;;;;;13.78;7.50;;;;;;;8.65;72.16;101129.80;1717476;82;20928;-76
2023/01/02 07:04:21;;;;;;;11.20;7.47;;;;;;;8.70;72.18;101133.02;1718167;82;21050;-76
2023/01/02 07:06:48;;;;;;;13.32;8.13;;;;;;;8.78;72.16;101132.54;1718566;82;20959;-76
2023/01/02 07:09:14;;;;;;;13.93;8.85;;;;;;;8.81;72.14;101137.17;1700925;82;21046;-76
2023/01/02 07:11:42;;;;;;;14.60;8.45;;;;;;;8.87;72.08;101131.52;1688736;83;23887;-76
2023/01/02 07:14:09;;;;;;;11.15;7.58;;;;;;;8.94;72.05;101142.54;1687567;85;20864;-75
2023/01/02 07:16:35;;;;;;;11.70;6.50;;;;;;;9.01;71.97;101133.34;1688163;85;21406;-76
2023/01/02 07:19:02;;;;;;;9.35;6.45;;;;;;;9.04;71.89;101131.82;1690512;83;21541;-76
2023/01/02 07:21:29;;;;;;;7.92;5.42;;;;;;;9.10;71.82;101142.00;1689466;85;21439;-76
2023/01/02 07:23:55;;;;;;;9.05;5.00;;;;;;;9.16;71.71;101147.34;1689783;83;21804;-76
2023/01/02 07:26:22;;;;;;;6.97;5.15;;;;;;;9.23;71.60;101150.47;1689593;83;21007;-76
2023/01/02 07:28:49;;;;;;;7.12;5.00;;;;;;;9.30;71.47;101143.41;1691071;83;20971;-76
2023/01/02 07:31:17;;;;;;;12.63;6.08;;;;;;;9.35;71.29;101149.23;1701227;84;20979;-76
2023/01/02 07:33:44;;;;;;;9.83;6.62;;;;;;;9.41;71.19;101151.97;1699295;84;21055;-76
2023/01/02 07:36:16;;;;;;;8.73;6.55;;;;;;;9.46;71.03;101146.80;1722661;82;21889;-75
2023/01/02 07:38:42;;;;;;;7.95;6.03;;;;;;;9.49;70.80;101153.66;1730631;82;21114;-76
2023/01/02 07:41:14;;;;;;;8.70;5.70;;;;;;;9.53;70.61;101152.52;1722571;83;21038;-75
2023/01/02 07:43:41;;;;;;;15.78;8.88;;;;;;;9.57;70.57;101152.72;1680823;83;21023;-76
2023/01/02 07:46:07;;;;;;;23.30;14.05;;;;;;;9.63;70.41;101159.37;1671515;85;21023;-75
2023/01/02 07:48:34;;;;;;;14.80;9.73;;;;;;;9.67;70.30;101155.63;1671740;85;22077;-76
2023/01/02 07:51:01;;;;;;;18.57;11.63;;;;;;;9.71;70.22;101154.00;1701526;84;21023;-76
2023/01/02 07:53:28;;;;;;;17.82;10.38;;;;;;;9.76;70.07;101155.05;1702325;83;20978;-76
2023/01/02 07:55:57;;;;;;;21.70;12.05;;;;;;;9.79;69.91;101158.80;1701314;84;21025;-76
2023/01/02 07:58:24;;;;;;;15.65;9.43;;;;;;;9.82;69.76;101153.78;1667617;85;21032;-75
2023/01/02 08:00:53;;;;;;;11.25;7.47;;;;;;;9.86;69.64;101157.94;1712259;83;21922;-76
2023/01/02 08:03:21;;;;;;;13.15;6.85;;;;;;;9.87;69.55;101164.91;1716050;83;21035;-75
2023/01/02 08:05:47;;;;;;;9.08;5.28;;;;;;;9.89;69.45;101169.14;1716173;82;21019;-76
2023/01/02 08:08:13;;;;;;;7.10;5.28;;;;;;;9.90;69.38;101168.66;1716009;82;20999;-76
2023/01/02 08:10:42;;;;;;;7.08;5.25;;;;;;;9.93;69.27;101165.34;1687558;84;21511;-76
2023/01/02 08:13:09;;;;;;;8.13;4.90;;;;;;;9.96;69.20;101159.89;1687386;85;21926;-78
2023/01/02 08:15:36;;;;;;;7.15;5.47;;;;;;;10.00;69.13;101171.93;1687296;83;20952;-76
2023/01/02 08:18:02;;;;;;;10.85;6.33;;;;;;;10.02;69.05;101169.19;1688524;82;21470;-75
2023/01/02 08:20:29;;;;;;;16.32;8.90;;;;;;;10.06;68.95;101176.45;1691091;83;21082;-76
2023/01/02 08:22:56;;;;;;;17.95;9.60;;;;;;;10.09;68.89;101173.13;1716411;83;20956;-75
2023/01/02 08:25:23;;;;;;;10.05;6.85;;;;;;;10.14;68.79;101179.45;1715042;83;21929;-75
2023/01/02 08:27:49;;;;;;;9.05;5.80;;;;;;;10.18;68.68;101179.61;1715953;82;20944;-75
2023/01/02 08:30:16;;;;;;;8.90;7.03;;;;;;;10.21;68.57;101178.93;1717085;82;20964;-76
2023/01/02 08:32:44;;;;;;;9.83;7.08;;;;;;;10.25;68.48;101172.55;1717875;82;21030;-76
2023/01/02 08:35:10;;;;;;;13.62;8.10;;;;;;;10.29;68.42;101171.39;1690441;83;21078;-77
2023/01/02 08:37:37;;;;;;;9.35;6.45;;;;;;;10.36;68.35;101174.96;1689268;83;21829;-76
2023/01/02 08:40:05;;;;;;;12.23;7.75;;;;;;;10.43;68.17;101173.62;1689625;83;21002;-76
2023/01/02 08:42:32;;;;;;;10.98;7.47;;;;;;;10.49;68.08;101167.91;1688132;83;20988;-76
2023/01/02 08:44:58;;;;;;;9.28;7.00;;;;;;;10.53;67.79;101161.02;1720141;83;20964;-76
2023/01/02 08:47:27;;;;;;;11.80;8.58;;;;;;;10.56;67.65;101159.48;1718193;83;20999;-76
2023/01/02 08:49:54;;;;;;;11.80;9.93;;;;;;;10.60;67.49;101161.44;1717198;83;21829;-75
2023/01/02 08:52:20;;;;;;;9.68;7.05;;;;;;;10.64;67.35;101162.09;1689239;85;21046;-76
2023/01/02 08:54:48;;;;;;;8.23;6.72;;;;;;;10.70;67.31;101164.30;1662733;85;21003;-76
2023/01/02 08:57:16;;;;;;;9.08;6.17;;;;;;;10.74;67.24;101158.73;1689163;83;20987;-76
2023/01/02 08:59:42;;;;;;;9.85;6.30;;;;;;;10.83;67.16;101160.75;1691625;83;21433;-76
2023/01/02 09:02:14;;;;;;;7.40;5.10;;;;;;;10.92;67.10;101159.75;1689215;85;21838;-76
2023/01/02 09:04:41;;;;;;;9.98;5.12;;;;;;;11.02;67.12;101162.14;1689179;83;21078;-76
2023/01/02 09:07:07;;;;;;;7.17;5.53;;;;;;;11.12;66.75;101157.91;1693407;83;20991;-76
2023/01/02 09:09:34;;;;;;;7.62;5.15;;;;;;;11.18;66.57;101158.78;1717838;82;20988;-76
2023/01/02 09:12:01;;;;;;;7.28;5.20;;;;;;;11.28;66.25;101162.95;1717834;83;21014;-75
2023/01/02 09:14:28;;;;;;;7.12;5.15;;;;;;;11.34;66.01;101162.54;1717860;83;22369;-76
2023/01/02 09:16:56;;;;;;;8.68;6.22;;;;;;;11.40;65.76;101167.41;1709102;83;20999;-76
2023/01/02 09:19:24;;;;;;;8.40;5.08;;;;;;;11.44;65.38;101160.46;1689411;83;21441;-76
2023/01/02 09:21:51;;;;;;;10.45;5.78;;;;;;;11.50;65.26;101155.23;1709065;83;21082;-76
2023/01/02 09:24:19;;;;;;;8.88;5.60;;;;;;;11.57;65.02;101156.94;1711564;82;21367;-76
2023/01/02 09:26:46;;;;;;;7.87;5.60;;;;;;;11.62;64.70;101153.50;1689009;85;22564;-75
2023/01/02 09:29:13;;;;;;;8.15;5.95;;;;;;;11.69;64.57;101152.96;1688790;84;21513;-76
2023/01/02 09:31:40;;;;;;;8.70;5.87;;;;;;;11.77;64.62;101156.36;1692467;84;21483;-77
2023/01/02 09:34:08;;;;;;;7.80;5.58;;;;;;;11.87;64.43;101158.77;1693066;83;21007;-75
2023/01/02 09:36:37;;;;;;;8.20;5.10;;;;;;;11.93;64.15;101147.72;1692308;83;20951;-75
2023/01/02 09:39:03;;;;;;;7.20;5.08;;;;;;;12.03;63.90;101149.21;1692301;83;21819;-76
2023/01/02 09:41:38;;;;;;;8.23;5.90;;;;;;;12.13;63.68;101143.61;1695600;83;21078;-76
2023/01/02 09:44:25;;;;;;;7.97;5.03;;;;;;;12.23;63.74;101143.30;1706431;82;21228;-76
2023/01/02 09:47:11;;;;;;;6.42;5.05;;;;;;;12.37;63.54;101146.26;1706541;84;21424;-76
2023/01/02 09:49:52;;;;;;;6.95;5.20;;;;;;;12.51;62.79;101139.91;1706313;83;20975;-76
2023/01/02 09:52:26;;;;;;;6.53;4.75;;;;;;;12.59;62.74;101141.03;1707223;82;21837;-76
2023/01/02 09:54:52;;;;;;;8.93;5.75;;;;;;;12.74;62.54;101129.76;1706176;84;21017;-76
2023/01/02 09:57:27;;;;;;;6.70;4.87;;;;;;;12.88;62.46;101128.20;1706253;83;21009;-77
2023/01/02 10:00:08;;;;;;;7.62;5.53;;;;;;;13.03;62.09;101126.19;1731384;82;21001;-76
2023/01/02 10:02:48;;;;;;;8.33;5.10;;;;;;;13.15;62.02;101114.61;1735902;82;20994;-77
2023/01/02 10:05:49;;;;;;;6.25;4.75;;;;;;;13.32;61.79;101122.61;1733325;82;21928;-76
2023/01/02 10:08:53;;;;;;;9.05;5.10;;;;;;;13.44;61.42;101124.28;1734456;82;20947;-74
2023/01/02 10:11:49;;;;;;;7.92;5.20;;;;;;;13.58;61.01;101119.19;1735338;82;21061;-75
2023/01/02 10:14:52;;;;;;;7.78;5.15;;;;;;;13.63;60.31;101122.33;1735335;82;20991;-76
2023/01/02 10:17:19;;;;;;;11.63;6.40;;;;;;;13.72;60.34;101113.62;1686726;84;20962;-76
2023/01/02 10:19:54;;;;;;;8.38;5.40;;;;;;;13.82;59.89;101113.73;1710970;82;21456;-77
2023/01/02 10:22:25;;;;;;;7.25;5.17;;;;;;;13.89;59.64;101118.03;1706959;82;21097;-77
2023/01/02 10:25:17;;;;;;;7.65;5.40;;;;;;;13.92;59.20;101117.32;1698260;84;21038;-75
2023/01/02 10:27:58;;;;;;;9.35;5.53;;;;;;;13.99;58.93;101117.64;1706027;83;21432;-76
2023/01/02 10:30:26;;;;;;;10.25;5.40;;;;;;;14.04;58.72;101118.13;1703991;84;21101;-77
2023/01/02 10:33:11;;;;;;;7.62;5.30;;;;;;;14.10;58.66;101118.95;1686139;83;21940;-77
2023/01/02 10:35:45;;;;;;;8.83;5.37;;;;;;;14.15;58.45;101113.25;1667912;83;20960;-76
2023/01/02 10:38:14;;;;;;;7.62;4.95;;;;;;;14.20;58.32;101113.23;1696750;84;21027;-76
2023/01/02 10:40:43;;;;;;;7.45;5.50;;;;;;;14.29;58.26;101109.82;1673168;85;21048;-77
2023/01/02 10:43:09;;;;;;;7.53;4.67;;;;;;;14.39;58.13;101102.41;1702663;83;21002;-77
2023/01/02 10:45:38;;;;;;;6.70;5.47;;;;;;;14.49;57.12;101106.02;1701550;83;20951;-76
2023/01/02 10:48:05;;;;;;;6.97;5.22;;;;;;;14.52;57.07;101107.91;1701421;83;21051;-77
2023/01/02 10:50:41;;;;;;;6.90;5.33;;;;;;;14.59;57.25;101109.58;1722216;82;21057;-76
2023/01/02 10:53:29;;;;;;;7.12;5.03;;;;;;;14.71;57.47;101111.67;1730437;82;20940;-76
2023/01/02 10:56:02;;;;;;;7.37;4.90;;;;;;;14.80;57.13;101108.23;1704495;83;20971;-75
2023/01/02 10:58:29;;;;;;;7.58;4.45;;;;;;;14.93;56.89;101109.34;1700095;83;21908;-76
2023/01/02 11:01:20;;;;;;;6.83;4.55;;;;;;;15.04;56.25;101110.59;1730934;82;20951;-75
2023/01/02 11:03:50;;;;;;;7.28;4.70;;;;;;;15.08;55.76;101102.71;1730963;82;21003;-76
2023/01/02 11:06:20;;;;;;;7.05;5.00;;;;;;;15.08;55.34;101102.23;1724760;82;21031;-76
2023/01/02 11:09:19;;;;;;;8.33;5.40;;;;;;;15.09;55.81;101105.73;1701398;83;21007;-76
2023/01/02 11:11:53;;;;;;;8.95;5.37;;;;;;;15.15;55.77;101097.19;1701825;83;21949;-77
2023/01/02 11:14:30;;;;;;;9.45;4.80;;;;;;;15.24;55.94;101094.22;1701540;84;20963;-76
2023/01/02 11:17:16;;;;;;;8.88;4.97;;;;;;;15.32;55.02;101095.72;1702780;83;20999;-76
2023/01/02 11:19:52;;;;;;;6.60;4.85;;;;;;;15.33;55.09;101096.91;1703735;83;21465;-76
2023/01/02 11:22:22;;;;;;;7.22;4.90;;;;;;;15.42;55.30;101098.77;1704931;82;20995;-76
2023/01/02 11:25:00;;;;;;;8.45;4.80;;;;;;;15.50;55.22;101099.92;1702452;83;21834;-75
2023/01/02 11:27:37;;;;;;;8.23;4.83;;;;;;;15.56;55.04;101101.56;1701559;83;21010;-77
2023/01/02 11:30:07;;;;;;;6.25;5.00;;;;;;;15.66;54.70;101102.95;1676210;84;21014;-76
2023/01/02 11:32:39;;;;;;;11.43;5.35;;;;;;;15.73;54.30;101096.94;1676539;83;21122;-76
2023/01/02 11:35:30;;;;;;;7.05;4.65;;;;;;;15.79;54.25;101088.88;1697018;84;21022;-76
2023/01/02 11:37:57;;;;;;;8.68;5.30;;;;;;;15.81;53.66;101089.56;1691974;84;21945;-76
2023/01/02 11:40:28;;;;;;;7.75;5.03;;;;;;;15.90;54.07;101087.41;1682586;84;20948;-77
2023/01/02 11:45:43;;;;;;;9.18;5.40;;;;;;;16.19;53.60;101076.76;1735731;82;20995;-76
2023/01/02 11:48:14;;;;;;;9.60;5.03;;;;;;;16.29;53.41;101079.42;1735903;82;20987;-76
2023/01/02 11:50:41;;;;;;;6.95;4.72;;;;;;;16.37;53.20;101082.22;1692101;83;21897;-77